Bidasoa — EGZZ — position and weather

sailwx.info

Track history (hours):
 
Tides and Currents Weather Stations Pressure Air Temp Water Temp Dewpoint Dewpoint Depression Visibility Wind Speed Wind Dir Waves Ship Positions

Bidasoa

Last reported at 2018-May-15 14:51 UTC. Time now 2018-May-20 14:04 UTC.
Position N 28°24' W 016°16'.

Length 33 m; draft 4 m.

MMSI: 224076630.

Date/timePositionNaut miles runAvg speedWind from/ knotsBaromVisibWave heightAir tempDewpointWater temp
2018-May-15 14:51N 28°24' W 016°16'3 9.0
2018-May-15 14:31N 28°27' W 016°14'3 6.5
2018-May-15 14:00N 28°30' W 016°12'  
2018-May-09 06:00N 28°31' W 016°08'4 8.2
2018-May-09 05:30N 28°30' W 016°13'0 0.7
2018-May-09 05:00N 28°30' W 016°12'0 0.0
2018-May-08 07:34N 28°30' W 016°12'0 0.1
2018-May-08 07:30N 28°30' W 016°12'0 0.0
2018-May-08 07:00N 28°30' W 016°12'0 0.0
2018-May-08 06:30N 28°30' W 016°12'0 0.0
2018-May-08 05:58N 28°30' W 016°12'0 0.0
2018-May-08 05:30N 28°30' W 016°12'0 0.0
2018-May-08 05:00N 28°30' W 016°12'0 0.0
2018-May-08 04:30N 28°30' W 016°12'0 0.0
2018-May-08 04:00N 28°30' W 016°12'0 0.0
2018-May-08 03:30N 28°30' W 016°12'0 0.0
2018-May-08 03:00N 28°30' W 016°12'0 0.0
2018-May-08 02:30N 28°30' W 016°12'0 0.0
2018-May-08 02:00N 28°30' W 016°12'0 0.0
2018-May-08 01:30N 28°30' W 016°12'0 0.0
2018-May-08 01:00N 28°30' W 016°12'0 0.0
2018-May-08 00:30N 28°30' W 016°12'0 0.0
2018-May-08 00:00N 28°30' W 016°12'0 0.0
2018-May-07 23:30N 28°30' W 016°12'0 0.0
2018-May-07 23:00N 28°30' W 016°12'0 0.0
2018-May-07 22:30N 28°30' W 016°12'0 0.0
2018-May-07 22:00N 28°30' W 016°12'0 0.0
2018-May-07 21:30N 28°30' W 016°12'0 0.0
2018-May-07 21:00N 28°30' W 016°12'0 0.0
2018-May-07 20:30N 28°30' W 016°12'0 0.0
2018-May-07 20:00N 28°30' W 016°12'0 0.0
2018-May-07 19:30N 28°30' W 016°12'0 0.0
2018-May-07 19:00N 28°30' W 016°12'0 0.0
2018-May-07 18:30N 28°30' W 016°12'0 0.0
2018-May-07 18:00N 28°30' W 016°12'0 0.0
2018-May-07 17:30N 28°30' W 016°12'0 0.0
2018-May-07 17:00N 28°30' W 016°12'0 0.0
2018-May-07 16:30N 28°30' W 016°12'0 0.0
2018-May-07 16:00N 28°30' W 016°12'0 0.0
2018-May-07 15:30N 28°30' W 016°12'0 0.0
2018-May-07 15:00N 28°30' W 016°12'0 0.0
2018-May-07 14:30N 28°30' W 016°12'0 0.0
2018-May-07 14:00N 28°30' W 016°12'0 0.0
2018-May-07 13:30N 28°30' W 016°12'0 0.0
2018-May-07 13:00N 28°30' W 016°12'0 0.0
2018-May-07 12:30N 28°30' W 016°12'0 0.0
2018-May-07 12:00N 28°30' W 016°12'0 0.0
2018-May-07 11:30N 28°30' W 016°12'0 0.0
2018-May-07 11:00N 28°30' W 016°12'0 0.0
2018-May-07 10:30N 28°30' W 016°12'0 0.0
2018-May-07 10:00N 28°30' W 016°12'0 0.0
2018-May-07 09:30N 28°30' W 016°12'0 0.0
2018-May-07 09:00N 28°30' W 016°12'0 0.0
2018-May-07 08:30N 28°30' W 016°12'0 0.0
2018-May-07 08:00N 28°30' W 016°12'0 0.0
2018-May-07 07:30N 28°30' W 016°12'0 0.0
2018-May-07 07:01N 28°30' W 016°12'3 6.0
2018-May-07 06:30N 28°27' W 016°14'4 8.4
2018-May-07 06:00N 28°24' W 016°17'  
Track history (hours):
 
Tides and Currents Weather Stations Pressure Air Temp Water Temp Dewpoint Dewpoint Depression Visibility Wind Speed Wind Dir Waves Ship Positions

Bidasoa

Last reported at 2018-May-15 14:51 UTC. Time now 2018-May-20 14:04 UTC.
Position N 28°24' W 016°16'.

Length 33 m; draft 4 m.

MMSI: 224076630.

Date/timePositionNaut miles runAvg speedWind from/ knotsBaromVisibWave heightAir tempDewpointWater temp
2018-May-15 14:51N 28°24' W 016°16'3 9.0
2018-May-15 14:31N 28°27' W 016°14'3 6.5
2018-May-15 14:00N 28°30' W 016°12'  
2018-May-09 06:00N 28°31' W 016°08'4 8.2
2018-May-09 05:30N 28°30' W 016°13'0 0.7
2018-May-09 05:00N 28°30' W 016°12'0 0.0
2018-May-08 07:34N 28°30' W 016°12'0 0.1
2018-May-08 07:30N 28°30' W 016°12'0 0.0
2018-May-08 07:00N 28°30' W 016°12'0 0.0
2018-May-08 06:30N 28°30' W 016°12'0 0.0
2018-May-08 05:58N 28°30' W 016°12'0 0.0
2018-May-08 05:30N 28°30' W 016°12'0 0.0
2018-May-08 05:00N 28°30' W 016°12'0 0.0
2018-May-08 04:30N 28°30' W 016°12'0 0.0
2018-May-08 04:00N 28°30' W 016°12'0 0.0
2018-May-08 03:30N 28°30' W 016°12'0 0.0
2018-May-08 03:00N 28°30' W 016°12'0 0.0
2018-May-08 02:30N 28°30' W 016°12'0 0.0
2018-May-08 02:00N 28°30' W 016°12'0 0.0
2018-May-08 01:30N 28°30' W 016°12'0 0.0
2018-May-08 01:00N 28°30' W 016°12'0 0.0
2018-May-08 00:30N 28°30' W 016°12'0 0.0
2018-May-08 00:00N 28°30' W 016°12'0 0.0
2018-May-07 23:30N 28°30' W 016°12'0 0.0
2018-May-07 23:00N 28°30' W 016°12'0 0.0
2018-May-07 22:30N 28°30' W 016°12'0 0.0
2018-May-07 22:00N 28°30' W 016°12'0 0.0
2018-May-07 21:30N 28°30' W 016°12'0 0.0
2018-May-07 21:00N 28°30' W 016°12'0 0.0
2018-May-07 20:30N 28°30' W 016°12'0 0.0
2018-May-07 20:00N 28°30' W 016°12'0 0.0
2018-May-07 19:30N 28°30' W 016°12'0 0.0
2018-May-07 19:00N 28°30' W 016°12'0 0.0
2018-May-07 18:30N 28°30' W 016°12'0 0.0
2018-May-07 18:00N 28°30' W 016°12'0 0.0
2018-May-07 17:30N 28°30' W 016°12'0 0.0
2018-May-07 17:00N 28°30' W 016°12'0 0.0
2018-May-07 16:30N 28°30' W 016°12'0 0.0
2018-May-07 16:00N 28°30' W 016°12'0 0.0
2018-May-07 15:30N 28°30' W 016°12'0 0.0
2018-May-07 15:00N 28°30' W 016°12'0 0.0
2018-May-07 14:30N 28°30' W 016°12'0 0.0
2018-May-07 14:00N 28°30' W 016°12'0 0.0
2018-May-07 13:30N 28°30' W 016°12'0 0.0
2018-May-07 13:00N 28°30' W 016°12'0 0.0
2018-May-07 12:30N 28°30' W 016°12'0 0.0
2018-May-07 12:00N 28°30' W 016°12'0 0.0
2018-May-07 11:30N 28°30' W 016°12'0 0.0
2018-May-07 11:00N 28°30' W 016°12'0 0.0
2018-May-07 10:30N 28°30' W 016°12'0 0.0
2018-May-07 10:00N 28°30' W 016°12'0 0.0
2018-May-07 09:30N 28°30' W 016°12'0 0.0
2018-May-07 09:00N 28°30' W 016°12'0 0.0
2018-May-07 08:30N 28°30' W 016°12'0 0.0
2018-May-07 08:00N 28°30' W 016°12'0 0.0
2018-May-07 07:30N 28°30' W 016°12'0 0.0
2018-May-07 07:01N 28°30' W 016°12'3 6.0
2018-May-07 06:30N 28°27' W 016°14'4 8.4
2018-May-07 06:00N 28°24' W 016°17'  

Dump ship's entire track history